Time;durP1;ratioP1;P1;durP2;ratioP2;P2;SDS_P1;SDS_P2;PMS_P1;PMS_P2;Temp;Humidity;BMP_temperature;BMP_pressure;BME280_temperature;BME280_humidity;BME280_pressure;Samples;Min_cycle;Max_cycle;Signal;HPM_P1;HPM_P2
2021/12/02 00:01:05;;;;;;;1.63;0.80;;;6.70;99.90;;;;;;5015399;28;20036;-80
2021/12/02 00:03:31;;;;;;;2.87;1.00;;;6.70;99.90;;;;;;4979135;28;20030;-81
2021/12/02 00:05:57;;;;;;;1.60;0.90;;;6.80;99.90;;;;;;4978597;28;20069;-80
2021/12/02 00:08:22;;;;;;;1.70;0.97;;;6.80;99.90;;;;;;4988971;28;20442;-80
2021/12/02 00:10:48;;;;;;;1.93;0.77;;;6.80;99.90;;;;;;4998341;28;20417;-80
2021/12/02 00:13:14;;;;;;;2.40;0.80;;;6.80;99.90;;;;;;5015072;28;20022;-79
2021/12/02 00:15:52;;;;;;;2.33;0.87;;;6.90;99.90;;;;;;4997673;28;20034;-81
2021/12/02 00:23:59;;;;;;;1.60;0.90;;;7.00;99.90;;;;;;5014930;28;20080;-79
2021/12/02 00:26:26;;;;;;;3.63;1.10;;;6.90;99.90;;;;;;4998192;28;20458;-79
2021/12/02 00:28:56;;;;;;;2.70;0.67;;;6.90;99.90;;;;;;4997347;28;20025;-81
2021/12/02 00:31:25;;;;;;;3.30;0.73;;;6.90;99.90;;;;;;4997872;28;20022;-81
2021/12/02 00:33:57;;;;;;;5.50;0.97;;;6.90;99.90;;;;;;5014616;28;20443;-79
2021/12/02 00:36:24;;;;;;;2.17;1.10;;;6.90;99.90;;;;;;4997863;28;20036;-79
2021/12/02 00:38:51;;;;;;;2.73;0.83;;;6.90;99.90;;;;;;4997524;28;20075;-78
2021/12/02 00:41:20;;;;;;;2.67;0.70;;;6.90;99.90;;;;;;5015182;28;20026;-79
2021/12/02 00:43:47;;;;;;;3.70;0.73;;;6.90;99.90;;;;;;5018421;28;20031;-80
2021/12/02 00:46:17;;;;;;;3.53;1.07;;;6.90;99.90;;;;;;5006729;28;20129;-83
2021/12/02 00:48:43;;;;;;;3.77;0.87;;;6.90;99.90;;;;;;4992366;28;20402;-81
2021/12/02 00:51:10;;;;;;;2.30;0.73;;;6.90;99.90;;;;;;5014139;28;20026;-80
2021/12/02 00:53:42;;;;;;;2.40;0.60;;;6.90;99.90;;;;;;4985712;28;20026;-80
2021/12/02 00:56:10;;;;;;;5.43;1.20;;;6.80;99.90;;;;;;4992735;28;20034;-80
2021/12/02 00:58:36;;;;;;;4.90;1.00;;;6.90;99.90;;;;;;5011762;28;20022;-81
2021/12/02 01:01:03;;;;;;;0.97;0.60;;;6.80;99.90;;;;;;5007636;28;20029;-80
2021/12/02 01:03:35;;;;;;;1.30;0.80;;;6.80;99.90;;;;;;5011288;28;20081;-80
2021/12/02 01:06:04;;;;;;;3.30;0.90;;;6.80;99.90;;;;;;5006328;28;20023;-81
2021/12/02 01:08:30;;;;;;;4.87;0.90;;;6.80;99.90;;;;;;4989946;28;20458;-80
2021/12/02 01:10:56;;;;;;;0.70;0.40;;;6.80;99.90;;;;;;5013276;28;20336;-82
2021/12/02 01:13:22;;;;;;;2.63;0.60;;;6.80;99.90;;;;;;5013097;28;20025;-81
2021/12/02 01:15:48;;;;;;;2.00;0.60;;;6.80;99.90;;;;;;4996546;28;20084;-81
2021/12/02 01:18:14;;;;;;;3.77;0.77;;;6.80;99.90;;;;;;4995708;28;20106;-81
2021/12/02 01:20:43;;;;;;;1.90;0.70;;;6.80;99.90;;;;;;4996475;28;20374;-80
2021/12/02 01:23:09;;;;;;;4.50;0.97;;;6.80;99.90;;;;;;5012662;28;20025;-81
2021/12/02 01:25:36;;;;;;;2.30;1.10;;;6.80;99.90;;;;;;5013383;28;20021;-82
2021/12/02 01:28:04;;;;;;;3.07;0.93;;;6.80;99.90;;;;;;4995615;28;20451;-84
2021/12/02 01:30:31;;;;;;;3.50;1.00;;;6.70;99.90;;;;;;4995818;28;20477;-83
2021/12/02 01:33:02;;;;;;;3.07;0.67;;;6.70;99.90;;;;;;4996143;28;20108;-84
2021/12/02 01:35:28;;;;;;;1.52;0.93;;;6.70;99.90;;;;;;4995570;28;20458;-85
2021/12/02 01:37:54;;;;;;;2.00;0.60;;;6.70;99.90;;;;;;4996056;28;20025;-82
2021/12/02 01:40:20;;;;;;;5.33;0.90;;;6.60;99.90;;;;;;4996025;28;20030;-84
2021/12/02 01:42:50;;;;;;;3.47;0.63;;;6.60;99.90;;;;;;5013291;28;20048;-83
2021/12/02 01:45:27;;;;;;;2.60;0.67;;;6.60;99.90;;;;;;4997028;28;20080;-83
2021/12/02 01:47:55;;;;;;;1.77;0.63;;;6.60;99.90;;;;;;5012468;28;20025;-85
2021/12/02 01:50:23;;;;;;;3.37;0.70;;;6.60;99.90;;;;;;5014521;28;20025;-90
2021/12/02 01:53:00;;;;;;;1.43;0.63;;;6.60;99.90;;;;;;5022278;28;20024;-88
2021/12/02 01:55:28;;;;;;;1.77;0.77;;;6.50;99.90;;;;;;5015005;28;20032;-88
2021/12/02 01:58:03;;;;;;;3.87;0.70;;;6.60;99.90;;;;;;5013954;28;20022;-84
2021/12/02 02:00:33;;;;;;;1.87;0.80;;;6.60;99.90;;;;;;5014604;28;20049;-88
2021/12/02 02:03:01;;;;;;;2.30;0.60;;;6.50;99.90;;;;;;4996947;28;20022;-88
2021/12/02 02:10:33;;;;;;;2.97;0.70;;;6.50;99.90;;;;;;5012813;28;20054;-89
2021/12/02 02:13:03;;;;;;;2.63;1.07;;;6.50;99.90;;;;;;5013773;28;20038;-88
2021/12/02 02:15:30;;;;;;;0.80;0.50;;;6.40;99.90;;;;;;5012805;28;20034;-88
2021/12/02 02:20:36;;;;;;;0.90;0.40;;;6.40;99.90;;;;;;5013711;28;20030;-88
2021/12/02 02:23:04;;;;;;;2.03;0.80;;;6.40;99.90;;;;;;5013087;28;20061;-88
2021/12/02 02:25:30;;;;;;;2.70;0.70;;;6.40;99.90;;;;;;5012331;28;20030;-88
2021/12/02 02:27:55;;;;;;;2.07;0.70;;;6.30;99.90;;;;;;5013213;28;20022;-89
2021/12/02 02:30:21;;;;;;;1.03;0.50;;;6.30;99.90;;;;;;5013671;28;20443;-88
2021/12/02 02:32:47;;;;;;;2.33;0.60;;;6.30;99.90;;;;;;5013176;28;20072;-88
2021/12/02 02:35:13;;;;;;;2.37;0.60;;;6.30;99.90;;;;;;5014292;28;20030;-88
2021/12/02 02:37:39;;;;;;;1.87;0.50;;;6.20;99.90;;;;;;5014898;28;20049;-88
2021/12/02 02:40:08;;;;;;;3.00;0.60;;;6.20;99.90;;;;;;5016881;28;20454;-87
2021/12/02 02:42:34;;;;;;;0.80;0.47;;;6.20;99.90;;;;;;5016592;28;20225;-87
2021/12/02 02:45:01;;;;;;;3.90;0.57;;;6.20;99.90;;;;;;5017019;28;20025;-88
2021/12/02 02:47:27;;;;;;;2.37;0.53;;;6.20;99.90;;;;;;5016494;28;20108;-87
2021/12/02 02:49:54;;;;;;;1.07;0.50;;;6.10;99.90;;;;;;5017047;28;20057;-88
2021/12/02 02:52:20;;;;;;;1.33;0.57;;;6.10;99.90;;;;;;5016432;28;20022;-88
2021/12/02 02:54:46;;;;;;;2.80;0.47;;;6.10;99.90;;;;;;5016739;28;20025;-88
2021/12/02 02:57:14;;;;;;;2.57;0.70;;;6.10;99.90;;;;;;5016811;28;20030;-88
2021/12/02 03:00:26;;;;;;;2.43;0.50;;;6.10;99.90;;;;;;5017354;28;20026;-88
2021/12/02 03:02:59;;;;;;;2.30;0.43;;;6.10;99.90;;;;;;5015120;28;20038;-91
2021/12/02 03:07:56;;;;;;;1.90;0.40;;;6.20;99.90;;;;;;5017349;28;20022;-90
2021/12/02 03:10:41;;;;;;;1.57;0.60;;;6.20;99.90;;;;;;5015525;28;20069;-90
2021/12/02 03:18:27;;;;;;;1.07;0.50;;;6.20;99.90;;;;;;5017075;28;20382;-89
2021/12/02 03:20:55;;;;;;;2.63;0.40;;;6.20;99.90;;;;;;5016149;28;20022;-89
2021/12/02 03:23:22;;;;;;;3.00;0.63;;;6.20;99.90;;;;;;5017012;28;20064;-89
2021/12/02 03:25:47;;;;;;;1.07;0.30;;;6.20;99.90;;;;;;5016526;28;20036;-89
2021/12/02 03:28:13;;;;;;;0.33;0.23;;;6.20;99.90;;;;;;5016517;28;20022;-89
2021/12/02 03:30:39;;;;;;;0.53;0.40;;;6.20;99.90;;;;;;5015818;28;20378;-90
2021/12/02 03:33:04;;;;;;;1.30;0.40;;;6.20;99.90;;;;;;5016172;28;20113;-90
2021/12/02 03:35:30;;;;;;;0.43;0.30;;;6.20;99.90;;;;;;5015637;28;20126;-89
2021/12/02 03:37:57;;;;;;;2.00;0.40;;;6.20;99.90;;;;;;5015907;28;20048;-91
2021/12/02 03:40:23;;;;;;;2.03;0.60;;;6.20;99.90;;;;;;5016385;28;20049;-90
2021/12/02 03:42:52;;;;;;;0.50;0.37;;;6.20;99.90;;;;;;5015977;28;20022;-90
2021/12/02 03:45:18;;;;;;;3.00;0.40;;;6.20;99.90;;;;;;5015609;28;20108;-79
2021/12/02 03:47:44;;;;;;;0.87;0.40;;;6.20;99.90;;;;;;5016195;28;20108;-91
2021/12/02 03:50:09;;;;;;;1.73;0.27;;;6.20;99.90;;;;;;5015527;28;20056;-91
2021/12/02 03:52:35;;;;;;;0.83;0.30;;;6.20;99.90;;;;;;5016436;28;20018;-91
2021/12/02 03:55:01;;;;;;;4.10;0.67;;;6.10;99.90;;;;;;5015624;28;20030;-92
2021/12/02 03:57:31;;;;;;;3.87;0.63;;;6.10;99.90;;;;;;5016158;28;20018;-92
2021/12/02 03:59:57;;;;;;;1.90;0.30;;;6.10;99.90;;;;;;5015482;28;20029;-91
2021/12/02 04:02:22;;;;;;;1.37;0.47;;;6.10;99.90;;;;;;5015133;28;20022;-89
2021/12/02 04:04:48;;;;;;;2.80;0.40;;;6.10;99.90;;;;;;5016553;28;20018;-91
2021/12/02 04:07:17;;;;;;;1.47;0.60;;;6.10;99.90;;;;;;5015503;28;20138;-90
2021/12/02 04:09:44;;;;;;;4.47;0.43;;;6.20;99.90;;;;;;5010561;28;20382;-84
2021/12/02 04:15:06;;;;;;;2.97;0.50;;;6.20;99.90;;;;;;5015173;28;20024;-91
2021/12/02 04:17:44;;;;;;;5.47;0.87;;;6.20;99.90;;;;;;5014813;28;20140;-90
2021/12/02 04:20:19;;;;;;;3.30;0.40;;;6.20;99.90;;;;;;5016513;28;20026;-91
2021/12/02 04:22:45;;;;;;;2.63;0.40;;;6.20;99.90;;;;;;5015841;28;20450;-91
2021/12/02 04:25:12;;;;;;;1.10;0.47;;;6.20;99.90;;;;;;5016100;28;20029;-90
2021/12/02 04:27:38;;;;;;;3.50;0.40;;;6.30;99.90;;;;;;5014563;28;20111;-91
2021/12/02 04:30:07;;;;;;;6.33;0.73;;;6.30;99.90;;;;;;5015106;28;20022;-91
2021/12/02 04:32:33;;;;;;;1.80;0.60;;;6.30;99.90;;;;;;5014550;28;20017;-91
2021/12/02 04:34:58;;;;;;;3.63;1.00;;;6.30;99.90;;;;;;5015049;28;20037;-92
2021/12/02 04:37:24;;;;;;;4.83;0.50;;;6.30;99.90;;;;;;5014389;28;20033;-91
2021/12/02 04:39:50;;;;;;;1.70;0.60;;;6.30;99.90;;;;;;5015994;28;20032;-89
2021/12/02 04:42:16;;;;;;;3.07;0.70;;;6.30;99.90;;;;;;5014870;28;20030;-92
2021/12/02 04:44:42;;;;;;;3.77;0.53;;;6.30;99.90;;;;;;5014205;28;20032;-92
2021/12/02 04:47:08;;;;;;;1.87;0.50;;;6.40;99.90;;;;;;5015797;28;20022;-92
2021/12/02 04:49:34;;;;;;;2.77;0.60;;;6.40;99.90;;;;;;5015282;28;20092;-92
2021/12/02 04:52:00;;;;;;;3.50;0.60;;;6.40;99.90;;;;;;5014821;28;20025;-91
2021/12/02 04:54:25;;;;;;;3.90;0.60;;;6.40;99.90;;;;;;5014170;28;20018;-91
2021/12/02 04:56:51;;;;;;;0.83;0.50;;;6.40;99.90;;;;;;5014613;28;20052;-91
2021/12/02 04:59:17;;;;;;;3.17;0.60;;;6.30;99.90;;;;;;5015698;28;20029;-88
2021/12/02 05:01:42;;;;;;;2.07;0.50;;;6.40;99.90;;;;;;5013508;28;20458;-87
2021/12/02 05:04:09;;;;;;;0.83;0.47;;;6.30;99.90;;;;;;5014239;28;20084;-88
2021/12/02 05:06:34;;;;;;;2.37;0.60;;;6.40;99.90;;;;;;5013958;28;20091;-89
2021/12/02 05:09:00;;;;;;;3.13;0.67;;;6.40;99.90;;;;;;5013851;28;20046;-89
2021/12/02 05:11:26;;;;;;;3.37;0.60;;;6.30;99.90;;;;;;5013584;28;20114;-90
2021/12/02 05:13:51;;;;;;;2.83;0.50;;;6.30;99.90;;;;;;5015207;28;20021;-89
2021/12/02 05:16:17;;;;;;;3.20;0.70;;;6.30;99.90;;;;;;5013999;28;20049;-89
2021/12/02 05:18:43;;;;;;;3.30;0.77;;;6.30;99.90;;;;;;5013660;28;20054;-89
2021/12/02 05:21:08;;;;;;;0.87;0.50;;;6.40;99.90;;;;;;5015160;28;20033;-90
2021/12/02 05:23:34;;;;;;;2.47;0.47;;;6.40;99.90;;;;;;5014802;28;20048;-91
2021/12/02 05:26:00;;;;;;;1.43;0.53;;;6.40;99.90;;;;;;5015327;28;20026;-90
2021/12/02 05:28:26;;;;;;;5.23;0.70;;;6.40;99.90;;;;;;5014586;28;20030;-90
2021/12/02 05:30:52;;;;;;;3.97;0.70;;;6.30;99.90;;;;;;5013974;28;20026;-90
2021/12/02 05:33:18;;;;;;;3.93;0.63;;;6.30;99.90;;;;;;5013735;28;20022;-88
2021/12/02 05:35:44;;;;;;;2.13;0.70;;;6.30;99.90;;;;;;5014348;28;20418;-91
2021/12/02 05:38:10;;;;;;;2.90;0.63;;;6.20;99.90;;;;;;5013825;28;20029;-90
2021/12/02 05:40:36;;;;;;;1.60;0.67;;;6.20;99.90;;;;;;5013561;28;20025;-90
2021/12/02 05:43:02;;;;;;;0.97;0.70;;;6.20;99.90;;;;;;5013736;28;20081;-90
2021/12/02 05:45:28;;;;;;;5.50;1.07;;;6.20;99.90;;;;;;5013178;28;20049;-89
2021/12/02 05:47:53;;;;;;;4.77;0.97;;;6.20;99.90;;;;;;5013817;28;20454;-90
2021/12/02 05:50:19;;;;;;;1.97;0.67;;;6.20;99.90;;;;;;5015162;28;20085;-90
2021/12/02 05:52:45;;;;;;;3.97;0.70;;;6.10;99.90;;;;;;5012997;28;20030;-90
2021/12/02 05:55:11;;;;;;;3.27;0.63;;;6.10;99.90;;;;;;5013716;28;20033;-90
2021/12/02 05:57:36;;;;;;;1.83;0.60;;;6.10;99.90;;;;;;5013282;28;20029;-88
2021/12/02 06:00:05;;;;;;;3.03;0.70;;;6.10;99.90;;;;;;5013929;28;20022;-87
2021/12/02 06:02:31;;;;;;;0.87;0.50;;;6.10;99.90;;;;;;5013135;28;20109;-87
2021/12/02 06:04:56;;;;;;;2.90;0.60;;;6.10;99.90;;;;;;5013442;28;20589;-87
2021/12/02 06:07:22;;;;;;;2.77;0.73;;;6.10;99.90;;;;;;5014387;28;20054;-87
2021/12/02 06:09:52;;;;;;;3.00;0.70;;;6.10;99.90;;;;;;5012372;28;20078;-88
2021/12/02 06:12:18;;;;;;;2.57;0.60;;;6.10;99.90;;;;;;5012759;28;20049;-88
2021/12/02 06:14:43;;;;;;;3.10;0.60;;;6.10;99.90;;;;;;5012975;28;20446;-88
2021/12/02 06:17:09;;;;;;;4.33;0.80;;;6.10;99.90;;;;;;5014014;28;20029;-88
2021/12/02 06:19:35;;;;;;;2.80;0.80;;;6.10;99.90;;;;;;5012797;28;20116;-87
2021/12/02 06:22:01;;;;;;;8.47;0.93;;;6.20;99.90;;;;;;5014513;28;20045;-87
2021/12/02 06:24:41;;;;;;;2.27;0.70;;;6.20;99.90;;;;;;5013663;28;20481;-79
2021/12/02 06:27:07;;;;;;;4.30;1.27;;;6.20;99.90;;;;;;5013839;28;20022;-87
2021/12/02 06:29:32;;;;;;;1.13;0.50;;;6.20;99.90;;;;;;5013812;28;20026;-87
2021/12/02 06:31:58;;;;;;;4.80;0.67;;;6.20;99.90;;;;;;5013055;28;20022;-87
2021/12/02 06:34:23;;;;;;;5.33;0.63;;;6.20;99.90;;;;;;5012929;28;20025;-87
2021/12/02 06:36:49;;;;;;;6.90;0.80;;;6.20;99.90;;;;;;5012726;28;20084;-87
2021/12/02 06:39:15;;;;;;;2.97;0.57;;;6.20;99.90;;;;;;5016341;28;20060;-86
2021/12/02 06:41:40;;;;;;;3.20;1.20;;;6.20;99.90;;;;;;5016872;28;20022;-87
2021/12/02 06:44:06;;;;;;;3.87;1.40;;;6.20;99.90;;;;;;5013003;28;20026;-88
2021/12/02 06:46:32;;;;;;;2.90;0.80;;;6.20;99.90;;;;;;5013589;28;20025;-88
2021/12/02 06:48:57;;;;;;;3.03;1.00;;;6.20;99.90;;;;;;5013966;28;20061;-89
2021/12/02 06:51:23;;;;;;;4.60;0.90;;;6.20;99.90;;;;;;5013156;28;20366;-89
2021/12/02 06:53:49;;;;;;;2.20;0.90;;;6.20;99.90;;;;;;5013293;28;20025;-88
2021/12/02 06:56:15;;;;;;;3.40;0.90;;;6.20;99.90;;;;;;5013175;28;20164;-89
2021/12/02 06:58:41;;;;;;;2.47;0.70;;;6.20;99.90;;;;;;5013301;28;20022;-85
2021/12/02 07:01:06;;;;;;;2.17;1.10;;;6.20;99.90;;;;;;5012955;28;20032;-86
2021/12/02 07:03:32;;;;;;;4.73;1.00;;;6.20;99.90;;;;;;5012502;28;20033;-87
2021/12/02 07:05:57;;;;;;;2.57;0.70;;;6.20;99.90;;;;;;5012331;28;20116;-87
2021/12/02 07:08:24;;;;;;;2.53;0.73;;;6.20;99.90;;;;;;5013644;28;20026;-87
2021/12/02 07:10:51;;;;;;;4.07;0.63;;;6.20;99.90;;;;;;5012270;28;20065;-88
2021/12/02 07:13:16;;;;;;;0.73;0.60;;;6.20;99.90;;;;;;5013822;28;20311;-87
2021/12/02 07:15:50;;;;;;;1.47;0.60;;;6.20;99.90;;;;;;5013032;28;20406;-88
2021/12/02 07:18:16;;;;;;;2.43;0.97;;;6.20;99.90;;;;;;5013073;28;20398;-87
2021/12/02 07:20:44;;;;;;;1.73;0.73;;;6.20;99.90;;;;;;5012179;28;20057;-87
2021/12/02 07:23:10;;;;;;;2.13;0.80;;;6.20;99.90;;;;;;5013368;28;20374;-88
2021/12/02 07:25:40;;;;;;;2.13;0.80;;;6.20;99.90;;;;;;5016155;28;20421;-88
2021/12/02 07:28:10;;;;;;;4.37;0.90;;;6.20;99.90;;;;;;5017574;28;20022;-87
2021/12/02 07:30:36;;;;;;;2.07;0.70;;;6.20;99.90;;;;;;5016149;28;20048;-88
2021/12/02 07:33:03;;;;;;;2.23;0.80;;;6.20;99.90;;;;;;5017291;28;20446;-87
2021/12/02 07:35:29;;;;;;;3.10;1.13;;;6.20;99.90;;;;;;5016112;28;20049;-88
2021/12/02 07:37:58;;;;;;;2.47;0.77;;;6.20;99.90;;;;;;5016393;28;20052;-86
2021/12/02 07:40:26;;;;;;;3.13;0.90;;;6.20;99.90;;;;;;5016067;28;20030;-87
2021/12/02 07:42:53;;;;;;;5.03;1.00;;;6.20;99.90;;;;;;5015418;28;20026;-87
2021/12/02 07:45:21;;;;;;;2.93;1.03;;;6.20;99.90;;;;;;5016191;28;20462;-87
2021/12/02 07:47:48;;;;;;;5.20;0.97;;;6.20;99.90;;;;;;5015420;28;20025;-86
2021/12/02 07:50:15;;;;;;;2.67;0.97;;;6.20;99.90;;;;;;5016067;28;20057;-87
2021/12/02 07:52:48;;;;;;;2.47;0.60;;;6.20;99.90;;;;;;5015592;28;20042;-87
2021/12/02 07:55:15;;;;;;;4.20;1.00;;;6.20;99.90;;;;;;5015972;28;20089;-87
2021/12/02 07:57:43;;;;;;;3.33;0.77;;;6.30;99.90;;;;;;5015250;28;20032;-86
2021/12/02 08:00:11;;;;;;;3.30;0.90;;;6.30;99.90;;;;;;5015612;28;20021;-86
2021/12/02 08:02:38;;;;;;;4.17;1.27;;;6.30;99.90;;;;;;5016262;28;20022;-86
2021/12/02 08:05:04;;;;;;;2.43;1.07;;;6.30;99.90;;;;;;5015696;28;20025;-87
2021/12/02 08:07:31;;;;;;;4.50;1.00;;;6.20;99.90;;;;;;5015615;28;20097;-87
2021/12/02 08:09:56;;;;;;;5.60;1.70;;;6.20;99.90;;;;;;5014676;28;20041;-88
2021/12/02 08:12:22;;;;;;;4.23;1.57;;;6.20;99.90;;;;;;5016532;28;20040;-87
2021/12/02 08:14:49;;;;;;;7.50;1.40;;;6.20;99.90;;;;;;5015128;28;20120;-88
2021/12/02 08:17:15;;;;;;;4.93;1.37;;;6.20;99.90;;;;;;5015482;28;20036;-87
2021/12/02 08:19:41;;;;;;;7.47;2.40;;;6.20;99.90;;;;;;5014734;28;20021;-87
2021/12/02 08:22:07;;;;;;;3.63;1.93;;;6.20;99.90;;;;;;5015229;28;20366;-86
2021/12/02 08:24:33;;;;;;;6.63;1.47;;;6.20;99.90;;;;;;5015196;28;20028;-87
2021/12/02 08:26:59;;;;;;;4.47;1.10;;;6.20;99.90;;;;;;5015374;28;20141;-87
2021/12/02 08:29:25;;;;;;;5.17;1.30;;;6.20;99.90;;;;;;5015044;28;20025;-85
2021/12/02 08:31:50;;;;;;;5.40;1.70;;;6.20;99.90;;;;;;5014384;28;20026;-85
2021/12/02 08:34:17;;;;;;;3.80;1.50;;;6.20;99.90;;;;;;5016105;28;20022;-86
2021/12/02 08:36:50;;;;;;;3.33;1.40;;;6.10;99.90;;;;;;5013507;28;20032;-86
2021/12/02 08:39:23;;;;;;;6.27;1.50;;;6.10;99.90;;;;;;5016369;28;20029;-86
2021/12/02 08:41:51;;;;;;;3.53;1.30;;;6.00;99.90;;;;;;5014552;28;20022;-86
2021/12/02 08:44:18;;;;;;;4.33;1.50;;;6.00;99.90;;;;;;5015009;28;20025;-86
2021/12/02 08:46:44;;;;;;;6.07;1.33;;;6.00;99.90;;;;;;5014601;28;20029;-85
2021/12/02 08:49:10;;;;;;;6.27;1.33;;;6.00;99.90;;;;;;5015955;28;20033;-86
2021/12/02 08:51:35;;;;;;;2.50;1.30;;;6.00;99.90;;;;;;5014113;28;20029;-79
2021/12/02 08:54:01;;;;;;;1.93;1.43;;;6.00;99.90;;;;;;5015271;28;20026;-87
2021/12/02 08:56:27;;;;;;;1.93;0.97;;;6.10;99.90;;;;;;5013222;28;20026;-86
2021/12/02 08:58:52;;;;;;;3.63;1.20;;;6.10;99.90;;;;;;5012076;28;20674;-85
2021/12/02 09:01:18;;;;;;;5.43;1.30;;;6.10;99.90;;;;;;5010737;28;20160;-87
2021/12/02 09:03:44;;;;;;;2.40;1.27;;;6.10;99.90;;;;;;5023146;28;20029;-87
2021/12/02 09:06:13;;;;;;;3.00;1.30;;;6.10;99.90;;;;;;5007043;28;20034;-83
2021/12/02 09:08:40;;;;;;;1.97;1.27;;;6.10;99.90;;;;;;5003306;28;20018;-87
2021/12/02 09:11:06;;;;;;;2.43;1.33;;;6.10;99.90;;;;;;5004819;28;20042;-88
2021/12/02 09:13:32;;;;;;;2.03;0.73;;;6.10;99.90;;;;;;5003550;28;20128;-90
2021/12/02 09:15:58;;;;;;;2.20;0.80;;;6.00;99.90;;;;;;5008610;28;20029;-88
2021/12/02 09:18:24;;;;;;;2.87;0.60;;;6.00;99.90;;;;;;5012640;28;20116;-88
2021/12/02 09:20:50;;;;;;;1.20;0.63;;;6.00;99.90;;;;;;5011385;28;20122;-82
2021/12/02 09:23:16;;;;;;;2.27;0.60;;;6.00;99.90;;;;;;5008512;28;20113;-86
2021/12/02 09:25:43;;;;;;;2.30;0.90;;;5.90;99.90;;;;;;5009955;28;20125;-88
2021/12/02 09:28:11;;;;;;;2.90;1.10;;;5.90;99.90;;;;;;5003695;28;20030;-88
2021/12/02 09:30:38;;;;;;;2.50;0.90;;;5.90;99.90;;;;;;5008263;28;20041;-82
2021/12/02 09:33:04;;;;;;;3.27;1.00;;;5.90;99.90;;;;;;5013492;28;20026;-86
2021/12/02 09:35:31;;;;;;;1.23;0.90;;;6.00;99.90;;;;;;5006480;28;20026;-84
2021/12/02 09:37:56;;;;;;;1.67;0.97;;;6.00;99.90;;;;;;5004486;28;20279;-86
2021/12/02 09:40:22;;;;;;;2.03;1.00;;;5.90;99.90;;;;;;5003477;28;20034;-85
2021/12/02 09:42:48;;;;;;;2.83;1.07;;;5.90;99.90;;;;;;5005687;28;20478;-90
2021/12/02 09:45:14;;;;;;;1.20;0.70;;;6.00;99.90;;;;;;5007413;28;20034;-85
2021/12/02 09:47:43;;;;;;;3.30;1.20;;;6.10;99.90;;;;;;5008367;28;20037;-83
2021/12/02 09:50:20;;;;;;;6.63;2.27;;;6.00;99.90;;;;;;5007027;28;20026;-86
2021/12/02 09:52:46;;;;;;;3.47;1.70;;;6.10;99.90;;;;;;5003949;28;20482;-86
2021/12/02 09:55:24;;;;;;;1.50;1.00;;;6.10;99.90;;;;;;5004805;28;20076;-83
2021/12/02 09:57:56;;;;;;;2.40;1.20;;;6.00;99.90;;;;;;5017534;28;20041;-85
2021/12/02 10:00:35;;;;;;;2.70;1.00;;;6.10;99.90;;;;;;5017198;28;20124;-89
2021/12/02 10:03:05;;;;;;;1.23;0.80;;;6.10;99.90;;;;;;4998935;28;20049;-89
2021/12/02 10:05:53;;;;;;;2.43;0.90;;;6.20;99.90;;;;;;4998870;28;20031;-81
2021/12/02 10:08:26;;;;;;;1.77;0.70;;;6.20;99.90;;;;;;4997615;28;20026;-90
2021/12/02 10:10:57;;;;;;;1.53;0.70;;;6.20;99.90;;;;;;5001758;28;20057;-85
2021/12/02 10:13:30;;;;;;;3.83;1.10;;;6.20;99.90;;;;;;5009511;28;20453;-88
2021/12/02 10:16:04;;;;;;;2.73;1.10;;;6.20;99.90;;;;;;5002504;28;20026;-87
2021/12/02 10:18:53;;;;;;;2.33;0.83;;;6.20;99.90;;;;;;5024209;28;20037;-84
2021/12/02 10:21:29;;;;;;;2.70;1.00;;;6.20;99.90;;;;;;4999328;28;20030;-86
2021/12/02 10:23:58;;;;;;;4.10;1.10;;;6.30;99.90;;;;;;5003793;28;20026;-89
2021/12/02 10:26:24;;;;;;;1.87;0.90;;;6.30;99.90;;;;;;5023675;28;20040;-91
2021/12/02 10:28:52;;;;;;;2.97;1.10;;;6.20;99.90;;;;;;5012801;28;20025;-85
2021/12/02 10:31:21;;;;;;;1.57;1.07;;;6.20;99.90;;;;;;5024285;28;20132;-88
2021/12/02 10:33:53;;;;;;;2.53;1.10;;;6.10;99.90;;;;;;5018238;28;20021;-88
2021/12/02 10:36:24;;;;;;;4.47;2.05;;;6.10;99.90;;;;;;5016501;28;20033;-86
2021/12/02 10:38:50;;;;;;;7.13;2.30;;;6.10;99.90;;;;;;5004056;28;20038;-88
2021/12/02 10:41:22;;;;;;;4.43;1.73;;;6.10;99.90;;;;;;5013643;28;20064;-85
2021/12/02 10:44:14;;;;;;;3.10;1.40;;;6.20;99.90;;;;;;5010897;28;20107;-84
2021/12/02 10:46:55;;;;;;;3.77;1.80;;;6.20;99.90;;;;;;5007434;28;20125;-86
2021/12/02 10:49:21;;;;;;;4.00;2.20;;;6.10;99.90;;;;;;5024949;28;20373;-81
2021/12/02 10:51:52;;;;;;;2.90;1.70;;;6.10;99.90;;;;;;5009804;28;20027;-84
2021/12/02 10:54:21;;;;;;;4.07;1.43;;;6.20;99.90;;;;;;5004471;28;20029;-84
2021/12/02 10:56:50;;;;;;;1.87;0.77;;;6.10;99.90;;;;;;5022903;28;20041;-80
2021/12/02 10:59:25;;;;;;;1.27;0.70;;;6.10;99.90;;;;;;5027846;28;20521;-84
2021/12/02 11:01:53;;;;;;;1.33;0.77;;;6.10;99.90;;;;;;5019192;28;20019;-87
2021/12/02 11:04:20;;;;;;;2.43;0.53;;;6.20;99.90;;;;;;5007948;28;20454;-83
2021/12/02 11:06:47;;;;;;;0.73;0.40;;;6.20;99.90;;;;;;5012910;28;20471;-82
2021/12/02 11:09:28;;;;;;;1.63;0.50;;;6.20;99.90;;;;;;5010013;28;20050;-80
2021/12/02 11:12:14;;;;;;;1.30;1.00;;;6.20;99.90;;;;;;5002053;28;20036;-83
2021/12/02 11:14:43;;;;;;;1.40;1.10;;;6.20;99.90;;;;;;5023314;28;20033;-75
2021/12/02 11:17:14;;;;;;;1.90;0.53;;;6.20;99.90;;;;;;5012069;28;20033;-89
2021/12/02 11:19:44;;;;;;;2.10;0.70;;;6.20;99.90;;;;;;5005866;28;20474;-76
2021/12/02 11:22:19;;;;;;;0.60;0.50;;;6.20;99.90;;;;;;5006219;28;20033;-79
2021/12/02 11:24:46;;;;;;;0.67;0.40;;;6.30;99.90;;;;;;5008218;28;20026;-81
2021/12/02 11:27:14;;;;;;;0.87;0.47;;;6.30;99.90;;;;;;5004926;28;20034;-80
2021/12/02 11:29:52;;;;;;;0.50;0.50;;;6.30;99.90;;;;;;5015446;28;20133;-78
2021/12/02 11:32:30;;;;;;;2.00;0.63;;;6.40;99.90;;;;;;5007322;28;20026;-79
2021/12/02 11:35:02;;;;;;;1.50;0.73;;;6.30;99.90;;;;;;5015856;28;20117;-80
2021/12/02 11:37:29;;;;;;;1.50;0.60;;;6.30;99.90;;;;;;5005843;28;20057;-80
2021/12/02 11:39:56;;;;;;;34.20;13.60;;;6.30;99.90;;;;;;5015966;28;20075;-80
2021/12/02 11:42:21;;;;;;;11.80;5.33;;;6.30;99.90;;;;;;5008123;28;20033;-78
2021/12/02 11:44:49;;;;;;;3.00;1.77;;;6.30;99.90;;;;;;5009999;28;20029;-79
2021/12/02 11:47:16;;;;;;;2.07;1.20;;;6.30;99.90;;;;;;5020052;28;20034;-81
2021/12/02 11:49:41;;;;;;;2.87;1.43;;;6.30;99.90;;;;;;5004226;28;20033;-78
2021/12/02 11:52:08;;;;;;;1.10;0.80;;;6.40;99.90;;;;;;5019295;28;20120;-84
2021/12/02 11:54:34;;;;;;;1.40;0.50;;;6.30;99.90;;;;;;5010220;28;20041;-79
2021/12/02 11:57:00;;;;;;;1.60;0.30;;;6.20;99.90;;;;;;5024651;28;20209;-82
2021/12/02 11:59:27;;;;;;;0.60;0.20;;;6.20;99.80;;;;;;5029377;28;20057;-81
2021/12/02 12:01:56;;;;;;;0.50;0.50;;;6.00;99.90;;;;;;5016605;28;20019;-81
2021/12/02 12:04:22;;;;;;;2.07;0.37;;;5.80;99.90;;;;;;4999652;28;20038;-80
2021/12/02 12:06:54;;;;;;;3.03;0.50;;;5.70;99.90;;;;;;5001041;28;20031;-79
2021/12/02 12:09:25;;;;;;;2.00;0.40;;;5.70;99.90;;;;;;5011821;28;20132;-80
2021/12/02 12:11:55;;;;;;;2.17;0.52;;;5.60;99.90;;;;;;5012221;28;20046;-81
2021/12/02 12:14:37;;;;;;;1.43;0.67;;;5.60;99.90;;;;;;5008341;28;20018;-78
2021/12/02 12:17:14;;;;;;;3.35;0.70;;;5.70;99.90;;;;;;5014070;28;20021;-82
2021/12/02 12:19:45;;;;;;;1.73;0.80;;;5.70;99.90;;;;;;5001297;28;20385;-81
2021/12/02 12:22:32;;;;;;;2.42;0.70;;;5.70;99.90;;;;;;5012937;28;20034;-80
2021/12/02 12:25:03;;;;;;;1.20;0.80;;;5.80;99.90;;;;;;5010923;28;20036;-80
2021/12/02 12:27:32;;;;;;;1.17;0.60;;;5.80;99.90;;;;;;5016231;28;20033;-81
2021/12/02 12:30:01;;;;;;;1.27;0.90;;;5.90;99.90;;;;;;5020899;28;20030;-81
2021/12/02 12:32:47;;;;;;;2.40;0.80;;;5.90;99.90;;;;;;5002287;28;20030;-80
2021/12/02 12:35:25;;;;;;;2.20;0.70;;;5.90;99.90;;;;;;5026124;28;20018;-81
2021/12/02 12:37:53;;;;;;;2.10;1.10;;;5.90;99.90;;;;;;5023520;28;20042;-81
2021/12/02 12:40:23;;;;;;;2.60;1.00;;;5.90;99.90;;;;;;5022423;28;20037;-81
2021/12/02 12:42:51;;;;;;;2.87;1.13;;;5.90;99.90;;;;;;5017849;28;20121;-80
2021/12/02 12:45:43;;;;;;;1.77;0.90;;;5.90;99.90;;;;;;5030404;28;20039;-81
2021/12/02 12:48:25;;;;;;;1.58;0.73;;;6.00;99.90;;;;;;5018210;28;20033;-80
2021/12/02 12:50:51;;;;;;;3.42;0.70;;;6.00;99.90;;;;;;5017931;28;20053;-80
2021/12/02 12:53:17;;;;;;;2.83;0.73;;;6.00;99.90;;;;;;5020311;28;20026;-81
2021/12/02 12:56:02;;;;;;;1.77;0.70;;;5.90;99.90;;;;;;5006114;28;20022;-76
2021/12/02 12:58:30;;;;;;;1.23;0.50;;;5.90;99.90;;;;;;5002453;28;20117;-80
2021/12/02 13:01:04;;;;;;;4.10;0.60;;;5.90;99.90;;;;;;5019073;28;20087;-80
2021/12/02 13:03:40;;;;;;;1.67;0.57;;;5.90;99.90;;;;;;5021588;28;20388;-83
2021/12/02 13:06:18;;;;;;;1.23;0.33;;;5.90;99.90;;;;;;5002399;28;20049;-80
2021/12/02 13:09:05;;;;;;;1.27;0.60;;;5.90;99.90;;;;;;5019637;28;20081;-79
2021/12/02 13:11:33;;;;;;;0.60;0.30;;;5.80;99.90;;;;;;5032732;28;20036;-80
2021/12/02 13:14:02;;;;;;;3.07;0.50;;;5.90;99.90;;;;;;5011864;28;20159;-81
2021/12/02 13:16:34;;;;;;;0.40;0.40;;;5.80;99.90;;;;;;5011891;28;20072;-81
2021/12/02 13:19:09;;;;;;;;;;;5.80;99.90;;;;;;5021922;28;20038;-81
2021/12/02 13:21:36;;;;;;;1.77;0.40;;;5.80;99.90;;;;;;5000825;28;19987;-81
2021/12/02 13:24:17;;;;;;;2.50;0.40;;;5.90;99.90;;;;;;5022100;28;20018;-80
2021/12/02 13:26:53;;;;;;;2.33;0.82;;;5.80;99.80;;;;;;5008850;28;20565;-77
2021/12/02 13:29:22;;;;;;;2.00;0.63;;;5.70;99.90;;;;;;5013461;28;20029;-80